Time;durP1;ratioP1;P1;durP2;ratioP2;P2;SDS_P1;SDS_P2;PMS_P1;PMS_P2;Temp;Humidity;BMP_temperature;BMP_pressure;BME280_temperature;BME280_humidity;BME280_pressure;Samples;Min_cycle;Max_cycle;Signal;HPM_P1;HPM_P2
2022/11/24 07:11:41;;;;;;;23.85;9.95;;;;;;;2.67;100.00;100140.99;1776420;78;20985;-85
2022/11/24 07:14:26;;;;;;;50.78;13.70;;;;;;;2.76;100.00;100136.89;1784414;78;21037;-86
2022/11/24 07:17:10;;;;;;;42.78;13.85;;;;;;;2.85;100.00;100135.48;1807011;78;20994;-85
2022/11/24 07:19:55;;;;;;;29.80;10.60;;;;;;;2.96;100.00;100130.59;1779302;78;21065;-86
2022/11/24 07:22:39;;;;;;;22.48;7.47;;;;;;;3.06;100.00;100131.87;1784995;79;20984;-85
2022/11/24 07:25:25;;;;;;;21.45;9.10;;;;;;;3.14;100.00;100133.69;1779962;80;20982;-84
2022/11/24 07:28:10;;;;;;;20.40;7.72;;;;;;;3.28;100.00;100130.17;1725657;81;21034;-85
2022/11/24 07:30:54;;;;;;;20.65;7.85;;;;;;;3.35;100.00;100124.11;1709029;82;20978;-84
2022/11/24 07:33:39;;;;;;;23.20;9.00;;;;;;;3.41;100.00;100122.32;1767574;80;21026;-86
2022/11/24 07:36:25;;;;;;;15.50;6.42;;;;;;;3.48;100.00;100125.70;1773545;80;20982;-86
2022/11/24 07:39:10;;;;;;;19.15;8.53;;;;;;;3.54;100.00;100135.56;1755458;80;21049;-84
2022/11/24 07:41:59;;;;;;;15.93;7.45;;;;;;;3.59;100.00;100136.20;1756481;80;21535;-85
2022/11/24 07:44:44;;;;;;;17.45;7.80;;;;;;;3.65;100.00;100137.92;1763033;78;21461;-85
2022/11/24 07:47:28;;;;;;;13.98;7.53;;;;;;;3.69;100.00;100135.04;1770937;80;21504;-85
2022/11/24 07:50:13;;;;;;;15.60;6.42;;;;;;;3.71;100.00;100130.72;1754860;78;20979;-85
2022/11/24 07:53:02;;;;;;;15.40;6.72;;;;;;;3.71;100.00;100126.16;1739943;80;21201;-84
2022/11/24 07:55:55;;;;;;;14.75;6.00;;;;;;;3.73;100.00;100124.02;1749795;78;21042;-85
2022/11/24 07:58:40;;;;;;;15.75;7.28;;;;;;;3.76;100.00;100120.85;1755208;81;21486;-84
2022/11/24 08:01:25;;;;;;;12.60;6.45;;;;;;;3.76;100.00;100119.50;1719291;81;21038;-85
2022/11/24 08:04:10;;;;;;;14.95;6.72;;;;;;;3.77;100.00;100131.94;1746613;78;21034;-83
2022/11/24 08:06:54;;;;;;;15.28;7.22;;;;;;;3.81;100.00;100133.11;1765504;79;21065;-85
2022/11/24 08:09:39;;;;;;;18.50;7.47;;;;;;;3.82;100.00;100129.33;1704837;82;20956;-88
2022/11/24 08:12:24;;;;;;;16.70;7.37;;;;;;;3.84;100.00;100124.50;1746362;80;20990;-86
2022/11/24 08:15:10;;;;;;;17.27;6.53;;;;;;;3.87;100.00;100129.41;1788755;79;20974;-86
2022/11/24 15:29:49;;;;;;;17.98;8.05;;;;;;;4.76;100.00;100127.06;1752161;79;21050;-86
2022/11/24 15:32:34;;;;;;;19.95;8.20;;;;;;;4.73;100.00;100131.90;1752905;80;21507;-86
2022/11/24 15:35:19;;;;;;;24.32;12.13;;;;;;;4.73;100.00;100129.73;1758757;80;21519;-86
2022/11/24 15:38:03;;;;;;;18.80;9.10;;;;;;;4.74;100.00;100132.72;1750093;80;20988;-87
2022/11/24 15:40:51;;;;;;;17.65;7.50;;;;;;;4.73;100.00;100133.80;1763712;80;21030;-85
2022/11/24 15:43:38;;;;;;;17.87;7.90;;;;;;;4.76;100.00;100133.83;1747345;82;21049;-85
2022/11/24 15:46:27;;;;;;;17.42;7.60;;;;;;;4.74;100.00;100129.47;1747452;80;20985;-83
2022/11/24 15:49:12;;;;;;;18.23;7.58;;;;;;;4.73;100.00;100129.73;1693593;83;21418;-85
2022/11/24 15:51:56;;;;;;;19.00;8.75;;;;;;;4.72;100.00;100127.56;1681852;83;21049;-85
2022/11/24 15:54:43;;;;;;;19.65;8.75;;;;;;;4.76;100.00;100128.42;1746600;80;20993;-85
2022/11/24 15:57:28;;;;;;;17.32;7.42;;;;;;;4.77;100.00;100129.50;1724974;81;21058;-84
2022/11/24 16:00:17;;;;;;;16.23;6.62;;;;;;;4.78;100.00;100134.41;1685239;82;21490;-85
2022/11/24 16:03:01;;;;;;;17.57;7.25;;;;;;;4.78;100.00;100127.64;1688285;82;21432;-86
2022/11/24 16:05:47;;;;;;;21.65;7.50;;;;;;;4.79;100.00;100133.33;1765876;80;21500;-86
2022/11/24 16:08:32;;;;;;;16.82;7.37;;;;;;;4.74;100.00;100133.53;1673201;84;21018;-85
2022/11/24 16:11:18;;;;;;;11.22;5.87;;;;;;;4.73;100.00;100133.80;1691736;83;21083;-87
2022/11/24 16:14:03;;;;;;;16.65;7.35;;;;;;;4.73;100.00;100145.44;1694694;83;21030;-85
2022/11/24 16:16:49;;;;;;;17.45;8.20;;;;;;;4.73;100.00;100142.73;1709842;80;21037;-85
2022/11/24 16:19:34;;;;;;;18.85;7.92;;;;;;;4.70;100.00;100141.87;1702393;82;21138;-86
2022/11/24 16:22:19;;;;;;;18.82;8.33;;;;;;;4.68;100.00;100139.95;1747043;80;21026;-85
2022/11/24 16:25:04;;;;;;;21.52;7.22;;;;;;;4.71;100.00;100146.21;1760287;80;21040;-84
2022/11/24 16:27:49;;;;;;;24.12;7.55;;;;;;;4.71;100.00;100146.21;1685309;83;21025;-86
2022/11/24 16:30:34;;;;;;;19.17;6.92;;;;;;;4.70;100.00;100148.64;1686334;83;21070;-86
2022/11/24 16:33:19;;;;;;;16.12;7.78;;;;;;;4.71;100.00;100146.21;1768297;80;21407;-84
2022/11/24 16:36:05;;;;;;;12.88;7.17;;;;;;;4.71;100.00;100144.86;1748536;80;20982;-86
2022/11/24 16:38:50;;;;;;;16.75;6.65;;;;;;;4.71;100.00;100144.05;1694027;81;20990;-87
2022/11/24 16:41:35;;;;;;;16.67;6.92;;;;;;;4.69;100.00;100144.28;1745271;80;20994;-86
2022/11/24 16:44:20;;;;;;;13.88;6.53;;;;;;;4.74;100.00;100148.41;1725352;80;21050;-86
2022/11/24 16:47:06;;;;;;;14.07;7.35;;;;;;;4.73;100.00;100144.08;1735006;80;21053;-85
2022/11/24 16:49:51;;;;;;;19.73;7.65;;;;;;;4.72;100.00;100155.14;1696562;82;20994;-86
2022/11/24 16:52:37;;;;;;;14.93;6.42;;;;;;;4.69;100.00;100147.53;1757468;80;21028;-86
2022/11/24 16:55:22;;;;;;;18.25;6.97;;;;;;;4.70;100.00;100150.00;1745108;80;21005;-80
2022/11/24 16:58:06;;;;;;;18.80;7.83;;;;;;;4.69;100.00;100147.53;1764480;80;21704;-84
2022/11/24 19:19:01;;;;;;;38.58;13.22;;;;;;;4.47;100.00;100196.16;1775271;79;71789;-89
2022/11/24 19:21:46;;;;;;;33.38;10.90;;;;;;;4.65;100.00;100202.70;1746644;81;21488;-90
2022/11/24 19:24:30;;;;;;;27.70;10.15;;;;;;;4.77;100.00;100204.48;1797970;78;21085;-90
2022/11/24 19:27:17;;;;;;;22.07;7.90;;;;;;;4.88;100.00;100207.11;1731329;81;21153;-91
2022/11/24 19:30:02;;;;;;;23.30;8.70;;;;;;;4.94;100.00;100205.29;1772126;78;21036;-91
2022/11/24 19:32:47;;;;;;;21.02;7.37;;;;;;;5.00;100.00;100206.20;1781782;78;21072;-91
2022/11/24 19:35:32;;;;;;;19.15;7.55;;;;;;;5.06;100.00;100206.02;1741698;81;21145;-91
2022/11/24 19:38:16;;;;;;;19.05;7.72;;;;;;;5.18;100.00;100212.69;1751127;80;21049;-90
2022/11/24 19:41:09;;;;;;;17.30;6.50;;;;;;;5.26;100.00;100211.44;1763767;80;21424;-91
2022/11/24 19:43:54;;;;;;;18.67;7.08;;;;;;;5.25;100.00;100214.69;1720316;82;21020;-90
2022/11/24 19:46:39;;;;;;;15.83;6.33;;;;;;;5.25;100.00;100205.75;1739415;81;21071;-91
2022/11/24 19:49:24;;;;;;;15.72;6.83;;;;;;;5.24;100.00;100204.09;1755272;80;21049;-90
2022/11/24 19:52:08;;;;;;;19.40;6.33;;;;;;;5.31;100.00;100211.51;1778298;79;21026;-90
2022/11/24 19:54:53;;;;;;;13.10;6.40;;;;;;;5.35;100.00;100214.02;1794345;78;21006;-89
2022/11/24 19:57:38;;;;;;;12.20;6.45;;;;;;;5.36;100.00;100218.34;1701726;81;21015;-91
2022/11/24 20:00:23;;;;;;;14.18;5.92;;;;;;;5.32;100.00;100211.27;1699556;82;21148;-91
2022/11/24 20:03:08;;;;;;;18.95;6.80;;;;;;;5.33;100.00;100217.50;1752910;80;21077;-90
2022/11/24 20:05:56;;;;;;;14.20;6.62;;;;;;;5.29;100.00;100217.70;1761503;78;21034;-89
2022/11/24 20:08:41;;;;;;;14.98;6.97;;;;;;;5.23;100.00;100217.36;1744556;79;21419;-92
2022/11/24 20:11:25;;;;;;;17.48;7.67;;;;;;;5.23;100.00;100212.76;1747723;80;21133;-90
2022/11/24 20:14:11;;;;;;;14.93;6.40;;;;;;;5.25;100.00;100217.39;1752593;80;20935;-92
2022/11/24 20:16:56;;;;;;;13.32;6.47;;;;;;;5.28;100.00;100218.79;1759079;80;21144;-91
2022/11/24 20:19:41;;;;;;;15.75;6.87;;;;;;;5.26;100.00;100212.80;1750939;80;20963;-92
2022/11/24 20:22:26;;;;;;;19.73;7.08;;;;;;;5.07;100.00;100217.16;1737384;81;20987;-90
2022/11/24 20:25:11;;;;;;;11.68;5.92;;;;;;;4.93;100.00;100219.91;1752225;80;21084;-90
2022/11/24 20:27:55;;;;;;;14.90;6.55;;;;;;;4.84;100.00;100216.78;1756715;80;21483;-92
2022/11/24 20:30:40;;;;;;;17.77;7.35;;;;;;;4.83;100.00;100217.05;1733743;81;21105;-91
2022/11/24 20:33:25;;;;;;;14.25;6.42;;;;;;;4.77;100.00;100212.61;1722760;82;20974;-91
2022/11/24 20:36:19;;;;;;;17.57;7.90;;;;;;;4.77;100.00;100216.13;1736042;80;21114;-91
2022/11/24 20:39:06;;;;;;;15.32;6.72;;;;;;;4.75;100.00;100220.99;1756743;79;21395;-91
2022/11/24 20:41:51;;;;;;;16.57;6.85;;;;;;;4.72;100.00;100218.75;1704896;82;20998;-91
2022/11/24 20:44:36;;;;;;;15.48;6.28;;;;;;;4.72;100.00;100218.25;1735682;81;21532;-91
2022/11/24 20:47:23;;;;;;;16.10;6.70;;;;;;;4.79;100.00;100226.72;1738921;80;21029;-90
2022/11/24 20:50:10;;;;;;;14.43;6.90;;;;;;;4.80;100.00;100224.28;1718952;82;20966;-88
2022/11/24 20:52:55;;;;;;;13.93;6.22;;;;;;;4.80;100.00;100231.05;1723067;80;21061;-92
2022/11/24 20:55:40;;;;;;;21.12;7.67;;;;;;;4.79;100.00;100224.02;1739359;80;21477;-90
2022/11/24 20:58:24;;;;;;;18.57;7.25;;;;;;;4.79;100.00;100229.42;1751408;80;21090;-93
2022/11/24 21:01:18;;;;;;;18.02;7.47;;;;;;;4.77;100.00;100228.85;1692341;82;21436;-90
2022/11/24 21:04:03;;;;;;;22.30;7.83;;;;;;;4.77;100.00;100230.20;1798232;78;21089;-88
2022/11/24 21:06:48;;;;;;;21.68;8.78;;;;;;;4.74;100.00;100235.04;1767485;78;20971;-90
2022/11/24 21:09:34;;;;;;;24.35;7.70;;;;;;;4.71;100.00;100232.02;1783943;78;21021;-90
2022/11/24 21:12:18;;;;;;;26.85;9.75;;;;;;;4.68;100.00;100234.68;1763523;80;20953;-92
2022/11/24 21:15:06;;;;;;;17.17;7.42;;;;;;;4.69;100.00;100234.14;1761052;80;21374;-90
2022/11/24 21:17:50;;;;;;;23.10;7.87;;;;;;;4.64;100.00;100236.23;1769727;78;21031;-91
2022/11/24 21:20:35;;;;;;;24.40;8.13;;;;;;;4.60;100.00;100232.39;1765626;80;21045;-91
2022/11/24 21:23:19;;;;;;;23.52;8.53;;;;;;;4.60;100.00;100237.80;1791339;79;21029;-91
2022/11/24 21:26:06;;;;;;;19.80;8.20;;;;;;;4.57;100.00;100239.63;1763455;80;21041;-92
2022/11/24 21:28:50;;;;;;;24.52;8.28;;;;;;;4.55;100.00;100236.87;1752597;79;21125;-89
2022/11/24 21:31:36;;;;;;;24.60;7.92;;;;;;;4.52;100.00;100239.03;1741448;80;21014;-90
2022/11/24 21:34:20;;;;;;;23.85;7.67;;;;;;;4.56;100.00;100242.59;1765233;80;21101;-91
2022/11/24 21:37:05;;;;;;;17.75;7.78;;;;;;;4.56;100.00;100241.23;1771669;80;21046;-92
2022/11/24 21:39:50;;;;;;;28.20;8.53;;;;;;;4.60;100.00;100244.57;1742001;81;20979;-92
2022/11/24 21:42:35;;;;;;;28.52;8.35;;;;;;;4.62;100.00;100241.06;1803946;78;21011;-91
2022/11/24 21:45:19;;;;;;;26.73;8.35;;;;;;;4.60;100.00;100240.51;1797170;78;20985;-92
2022/11/24 21:48:05;;;;;;;23.47;8.73;;;;;;;4.58;100.00;100239.93;1795372;78;21124;-90
2022/11/24 21:50:49;;;;;;;20.65;7.00;;;;;;;4.56;100.00;100246.11;1797865;78;20970;-93
2022/11/24 21:53:35;;;;;;;22.52;8.10;;;;;;;4.61;100.00;100247.55;1790033;79;21117;-91
2022/11/24 21:56:21;;;;;;;23.85;8.48;;;;;;;4.63;100.00;100254.08;1788364;79;21046;-89
2022/11/24 21:59:06;;;;;;;24.27;7.78;;;;;;;4.66;100.00;100252.23;1785455;78;21168;-92
2022/11/24 22:01:51;;;;;;;22.93;8.05;;;;;;;4.65;100.00;100251.42;1804185;78;21009;-88
2022/11/24 22:04:36;;;;;;;18.75;8.55;;;;;;;4.64;100.00;100255.17;1760300;80;21487;-87
2022/11/24 22:07:21;;;;;;;24.45;6.60;;;;;;;4.65;100.00;100251.42;1731055;81;21135;-89
2022/11/24 22:10:08;;;;;;;25.75;8.30;;;;;;;4.63;100.00;100249.48;1753397;80;20990;-90
2022/11/24 22:12:53;;;;;;;20.52;9.08;;;;;;;4.59;100.00;100251.03;1759413;80;21045;-89
2022/11/24 22:15:38;;;;;;;25.55;8.23;;;;;;;4.59;100.00;100248.86;1723966;81;21050;-89
2022/11/24 22:18:23;;;;;;;24.65;8.10;;;;;;;4.57;100.00;100251.80;1758510;80;21038;-88
2022/11/24 22:21:11;;;;;;;21.97;8.38;;;;;;;4.59;100.00;100255.09;1734800;81;21050;-90
2022/11/24 22:23:55;;;;;;;20.45;7.28;;;;;;;4.61;100.00;100254.31;1796418;78;21035;-90
2022/11/24 22:26:40;;;;;;;19.52;7.45;;;;;;;4.65;100.00;100255.98;1751822;80;21081;-88
2022/11/24 22:29:25;;;;;;;18.40;7.70;;;;;;;4.66;100.00;100254.41;1768537;80;21041;-90
2022/11/24 22:32:10;;;;;;;23.25;7.40;;;;;;;4.67;100.00;100260.12;1752675;80;21455;-90
2022/11/24 22:34:55;;;;;;;21.77;7.72;;;;;;;4.65;100.00;100262.25;1795964;77;21028;-89
2022/11/24 22:37:39;;;;;;;15.68;6.85;;;;;;;4.66;100.00;100269.28;1797505;78;21050;-88
2022/11/24 22:40:24;;;;;;;18.02;7.58;;;;;;;4.64;100.00;100267.35;1796391;78;21067;-89
2022/11/24 22:43:08;;;;;;;17.25;6.97;;;;;;;4.63;100.00;100269.78;1807203;77;21061;-89
2022/11/24 22:45:53;;;;;;;22.25;7.75;;;;;;;4.65;100.00;100270.37;1763231;80;20989;-88
2022/11/24 22:48:37;;;;;;;22.35;8.90;;;;;;;4.66;100.00;100273.34;1763703;80;21479;-90
2022/11/24 22:51:27;;;;;;;17.25;6.72;;;;;;;4.64;100.00;100267.35;1798604;78;21530;-87
2022/11/24 22:54:13;;;;;;;23.35;8.30;;;;;;;4.64;100.00;100275.47;1731975;81;21006;-90
2022/11/24 22:56:57;;;;;;;19.77;7.80;;;;;;;4.63;100.00;100269.78;1799298;78;21472;-88
2022/11/24 22:59:42;;;;;;;18.25;7.85;;;;;;;4.63;100.00;100275.20;1732261;80;21002;-89
2022/11/24 23:02:28;;;;;;;19.50;7.70;;;;;;;4.62;100.00;100278.14;1727854;81;21041;-90
2022/11/24 23:05:12;;;;;;;17.92;6.22;;;;;;;4.60;100.00;100281.61;1764940;80;21498;-89
2022/11/24 23:07:57;;;;;;;16.23;7.42;;;;;;;4.61;100.00;100282.73;1760296;80;21038;-89
2022/11/24 23:10:42;;;;;;;15.90;6.90;;;;;;;4.61;100.00;100285.44;1734944;82;21001;-87
2022/11/24 23:13:26;;;;;;;18.82;7.15;;;;;;;4.59;100.00;100283.50;1745386;80;21046;-89
2022/11/24 23:16:12;;;;;;;19.17;6.35;;;;;;;4.58;100.00;100283.23;1717956;82;21045;-87
2022/11/24 23:18:57;;;;;;;18.80;7.33;;;;;;;4.57;100.00;100276.16;1763741;80;20998;-89
2022/11/24 23:21:42;;;;;;;17.48;6.72;;;;;;;4.56;100.00;100285.35;1798302;78;21033;-89
2022/11/24 23:24:27;;;;;;;18.45;6.60;;;;;;;4.57;100.00;100286.98;1726680;82;21015;-88
2022/11/24 23:27:12;;;;;;;19.52;7.15;;;;;;;4.58;100.00;100287.83;1800506;78;21062;-89
2022/11/24 23:29:57;;;;;;;13.45;5.92;;;;;;;4.58;100.00;100286.47;1723917;82;21038;-89
2022/11/24 23:32:42;;;;;;;15.85;5.62;;;;;;;4.57;100.00;100288.88;1761187;80;21192;-88
2022/11/24 23:35:26;;;;;;;17.17;5.92;;;;;;;4.55;100.00;100294.55;1750940;80;21042;-86
2022/11/24 23:38:12;;;;;;;16.32;6.70;;;;;;;4.57;100.00;100286.17;1785492;79;21330;-87
2022/11/24 23:41:03;;;;;;;17.55;6.17;;;;;;;4.52;100.00;100285.03;1795550;78;20982;-88
2022/11/24 23:43:49;;;;;;;14.93;4.65;;;;;;;4.51;100.00;100284.73;1788580;78;21206;-89
2022/11/24 23:46:34;;;;;;;14.25;5.12;;;;;;;4.50;100.00;100289.02;1795233;78;21484;-90
2022/11/24 23:49:19;;;;;;;14.50;6.10;;;;;;;4.50;100.00;100295.78;1764496;80;21359;-89
2022/11/24 23:52:04;;;;;;;17.30;7.62;;;;;;;4.48;100.00;100287.11;1742755;81;21069;-90
2022/11/24 23:54:50;;;;;;;11.57;5.33;;;;;;;4.46;100.00;100285.98;1789711;78;21040;-88
2022/11/24 23:57:34;;;;;;;14.98;5.83;;;;;;;4.46;100.00;100294.64;1802116;78;21018;-88
